Time;durP1;ratioP1;P1;durP2;ratioP2;P2;SDS_P1;SDS_P2;PMS_P1;PMS_P2;Temp;Humidity;BMP_temperature;BMP_pressure;BME280_temperature;BME280_humidity;BME280_pressure;Samples;Min_cycle;Max_cycle;Signal;HPM_P1;HPM_P2
2022/08/16 00:01:01;;;;;;;23.55;21.23;;;20.40;99.90;;;;;;5054301;28;20201;-80
2022/08/16 00:03:28;;;;;;;21.58;19.67;;;20.30;99.90;;;;;;5041701;28;20198;-79
2022/08/16 00:05:55;;;;;;;21.88;19.70;;;20.30;99.90;;;;;;5034436;28;20233;-80
2022/08/16 00:08:21;;;;;;;22.23;20.17;;;20.30;99.90;;;;;;5045058;28;20594;-81
2022/08/16 00:10:48;;;;;;;19.42;17.48;;;20.30;99.90;;;;;;5054487;28;20201;-80
2022/08/16 00:13:17;;;;;;;18.83;17.13;;;20.30;99.90;;;;;;5053777;28;20230;-80
2022/08/16 00:15:48;;;;;;;18.63;16.92;;;20.30;99.90;;;;;;5053275;28;20201;-80
2022/08/16 00:18:16;;;;;;;16.88;15.32;;;20.20;99.90;;;;;;5053896;28;20202;-81
2022/08/16 00:20:44;;;;;;;18.02;16.42;;;20.20;99.90;;;;;;5053984;28;20224;-80
2022/08/16 00:23:12;;;;;;;26.05;23.42;;;20.20;99.90;;;;;;5053529;28;20233;-80
2022/08/16 00:25:40;;;;;;;22.02;19.98;;;20.10;99.90;;;;;;5039078;28;20226;-80
2022/08/16 00:28:07;;;;;;;25.08;22.88;;;20.10;99.90;;;;;;5033670;28;20298;-81
2022/08/16 00:30:35;;;;;;;25.50;23.13;;;20.10;99.90;;;;;;5040127;28;20229;-80
2022/08/16 00:33:03;;;;;;;23.92;21.70;;;20.10;99.90;;;;;;5054047;28;20737;-80
2022/08/16 00:35:34;;;;;;;23.80;21.48;;;20.10;99.90;;;;;;5052879;28;20908;-81
2022/08/16 00:38:02;;;;;;;31.40;28.48;;;20.10;99.90;;;;;;5053502;28;20208;-81
2022/08/16 00:40:34;;;;;;;29.52;26.70;;;20.10;99.90;;;;;;5038286;28;20225;-80
2022/08/16 00:43:01;;;;;;;26.10;23.70;;;20.10;99.90;;;;;;5032282;28;20571;-78
2022/08/16 00:45:43;;;;;;;24.75;22.38;;;20.00;99.90;;;;;;5033228;28;20518;-77
2022/08/16 00:48:14;;;;;;;21.38;19.58;;;20.00;99.90;;;;;;5033456;28;20289;-78
2022/08/16 00:50:43;;;;;;;22.35;20.15;;;20.00;99.90;;;;;;5052253;28;20198;-78
2022/08/16 00:53:12;;;;;;;23.40;21.27;;;20.00;99.90;;;;;;5053140;28;20198;-78
2022/08/16 00:55:44;;;;;;;21.67;19.75;;;20.00;99.90;;;;;;5051337;28;20194;-78
2022/08/16 00:58:11;;;;;;;23.60;21.40;;;20.00;99.90;;;;;;5052310;28;20186;-77
2022/08/16 01:00:39;;;;;;;23.15;21.05;;;20.00;99.90;;;;;;5053030;28;20477;-78
2022/08/16 01:03:10;;;;;;;29.40;26.70;;;20.00;99.90;;;;;;5051577;28;20206;-79
2022/08/16 01:05:38;;;;;;;24.80;22.40;;;20.00;99.90;;;;;;5051242;28;20625;-77
2022/08/16 01:08:07;;;;;;;25.85;23.27;;;19.90;99.90;;;;;;5052679;28;20201;-78
2022/08/16 01:10:35;;;;;;;23.58;21.33;;;19.90;99.90;;;;;;5052406;28;20301;-80
2022/08/16 01:13:06;;;;;;;29.05;26.45;;;19.90;99.90;;;;;;5052590;28;20259;-78
2022/08/16 01:15:34;;;;;;;22.77;20.58;;;20.00;99.90;;;;;;5039667;28;20658;-78
2022/08/16 01:18:04;;;;;;;23.85;21.65;;;19.90;99.90;;;;;;5031602;28;20556;-77
2022/08/16 01:20:35;;;;;;;22.77;20.67;;;20.00;99.90;;;;;;5031957;28;20216;-78
2022/08/16 01:23:10;;;;;;;21.77;19.77;;;20.00;99.90;;;;;;5032947;28;20277;-78
2022/08/16 01:25:42;;;;;;;20.40;18.60;;;20.00;99.90;;;;;;5031662;28;20237;-78
2022/08/16 01:28:14;;;;;;;24.65;22.15;;;20.00;99.90;;;;;;5033139;28;20241;-80
2022/08/16 01:30:44;;;;;;;26.27;23.65;;;20.00;99.90;;;;;;5032473;28;20198;-79
2022/08/16 01:33:11;;;;;;;23.23;20.98;;;20.00;99.90;;;;;;5048093;28;20202;-78
2022/08/16 01:35:40;;;;;;;25.90;23.42;;;20.00;99.90;;;;;;5052655;28;20228;-78
2022/08/16 01:38:18;;;;;;;27.05;24.52;;;20.00;99.90;;;;;;5052464;28;20216;-79
2022/08/16 01:40:46;;;;;;;25.52;22.90;;;20.00;99.90;;;;;;5051848;28;20194;-77
2022/08/16 01:43:13;;;;;;;25.88;23.17;;;20.00;99.90;;;;;;5052124;28;20209;-78
2022/08/16 01:45:40;;;;;;;30.73;27.73;;;20.00;99.90;;;;;;5051093;28;20190;-80
2022/08/16 01:48:08;;;;;;;25.35;23.05;;;20.00;99.90;;;;;;5052464;28;20198;-81
2022/08/16 01:50:35;;;;;;;35.00;31.70;;;20.00;99.90;;;;;;5036937;28;20207;-78
2022/08/16 01:53:03;;;;;;;28.00;25.27;;;20.00;99.90;;;;;;5031625;28;20194;-76
2022/08/16 01:55:30;;;;;;;29.25;26.33;;;20.00;99.90;;;;;;5032312;28;20673;-78
2022/08/16 01:57:58;;;;;;;30.50;27.40;;;20.00;99.90;;;;;;5031715;28;20206;-81
2022/08/16 02:00:26;;;;;;;32.85;29.63;;;20.00;99.90;;;;;;5032588;28;20293;-80
2022/08/16 02:02:53;;;;;;;31.17;28.08;;;20.00;99.90;;;;;;5032718;28;20199;-78
2022/08/16 02:05:20;;;;;;;27.95;25.25;;;20.00;99.90;;;;;;5032009;28;20197;-77
2022/08/16 02:07:47;;;;;;;26.17;23.73;;;20.00;99.90;;;;;;5031505;28;20234;-80
2022/08/16 02:10:15;;;;;;;31.58;28.50;;;20.00;99.90;;;;;;5037406;28;20210;-78
2022/08/16 02:12:43;;;;;;;28.80;25.73;;;19.90;99.90;;;;;;5035951;28;20238;-77
2022/08/16 02:15:13;;;;;;;32.00;28.90;;;19.90;99.90;;;;;;5035624;28;20504;-80
2022/08/16 02:17:41;;;;;;;33.08;29.77;;;19.90;99.90;;;;;;5036419;28;20201;-78
2022/08/16 02:20:09;;;;;;;35.97;32.25;;;19.90;99.90;;;;;;5053942;28;20618;-79
2022/08/16 02:22:36;;;;;;;31.00;27.95;;;19.90;99.90;;;;;;5055358;28;20609;-78
2022/08/16 02:25:08;;;;;;;35.25;31.60;;;19.90;99.90;;;;;;5055672;28;20212;-80
2022/08/16 02:27:35;;;;;;;35.65;32.05;;;19.90;99.90;;;;;;5055042;28;20232;-79
2022/08/16 02:30:02;;;;;;;35.45;31.80;;;19.90;99.90;;;;;;5055460;28;20193;-77
2022/08/16 02:32:30;;;;;;;30.80;27.75;;;19.90;99.90;;;;;;5056140;28;20505;-78
2022/08/16 02:34:57;;;;;;;34.90;31.38;;;19.90;99.90;;;;;;5054469;28;20701;-78
2022/08/16 02:37:24;;;;;;;35.40;31.73;;;19.90;99.90;;;;;;5055866;28;20274;-78
2022/08/16 02:39:51;;;;;;;30.60;27.40;;;19.90;99.90;;;;;;5055923;28;20206;-77
2022/08/16 02:42:18;;;;;;;32.13;28.90;;;19.80;99.90;;;;;;5054946;28;20309;-79
2022/08/16 02:44:45;;;;;;;32.70;29.55;;;19.80;99.90;;;;;;5055327;28;20292;-78
2022/08/16 02:47:12;;;;;;;33.25;29.73;;;19.80;99.90;;;;;;5055151;28;20217;-78
2022/08/16 02:49:42;;;;;;;33.63;30.23;;;19.80;99.90;;;;;;5054946;28;20197;-78
2022/08/16 02:52:09;;;;;;;30.23;27.20;;;19.70;99.90;;;;;;5055248;28;20815;-78
2022/08/16 02:54:36;;;;;;;28.13;25.05;;;19.70;99.90;;;;;;5055320;28;20224;-78
2022/08/16 02:57:04;;;;;;;36.53;32.75;;;19.70;99.90;;;;;;5054918;28;20197;-78
2022/08/16 02:59:31;;;;;;;31.88;28.58;;;19.70;99.90;;;;;;5055740;28;20205;-79
2022/08/16 03:01:58;;;;;;;30.13;27.17;;;19.60;99.90;;;;;;5055093;28;20209;-78
2022/08/16 03:04:25;;;;;;;35.85;30.55;;;19.60;99.90;;;;;;5054435;28;20206;-77
2022/08/16 03:06:55;;;;;;;33.42;30.00;;;19.60;99.90;;;;;;5055405;28;20220;-79
2022/08/16 03:09:22;;;;;;;38.50;34.50;;;19.60;99.90;;;;;;5055003;28;20198;-78
2022/08/16 03:11:49;;;;;;;35.17;31.67;;;19.60;99.90;;;;;;5054373;28;20257;-77
2022/08/16 03:14:16;;;;;;;36.65;32.55;;;19.60;99.90;;;;;;5055010;28;20201;-77
2022/08/16 03:16:43;;;;;;;32.58;29.05;;;19.50;99.90;;;;;;5054957;28;20233;-78
2022/08/16 03:19:10;;;;;;;30.27;27.38;;;19.50;99.90;;;;;;5053596;28;20198;-78
2022/08/16 03:21:37;;;;;;;32.03;28.80;;;19.50;99.90;;;;;;5054273;28;20202;-78
2022/08/16 03:24:06;;;;;;;34.65;31.15;;;19.50;99.90;;;;;;5054283;28;20475;-79
2022/08/16 03:26:33;;;;;;;41.10;36.33;;;19.40;99.90;;;;;;5054556;28;20221;-79
2022/08/16 03:29:01;;;;;;;37.80;34.03;;;19.40;99.90;;;;;;5054685;28;20240;-80
2022/08/16 03:31:28;;;;;;;47.53;42.50;;;19.40;99.90;;;;;;5054222;28;20268;-78
2022/08/16 03:33:55;;;;;;;38.38;34.42;;;19.40;99.90;;;;;;5054712;28;20504;-78
2022/08/16 03:36:21;;;;;;;39.92;35.67;;;19.40;99.90;;;;;;5054373;28;20221;-79
2022/08/16 03:38:48;;;;;;;42.03;37.60;;;19.40;99.90;;;;;;5053602;28;20198;-78
2022/08/16 03:41:17;;;;;;;37.00;33.10;;;19.40;99.90;;;;;;5051195;28;20211;-78
2022/08/16 03:43:43;;;;;;;37.38;33.47;;;19.30;99.90;;;;;;5034827;28;20220;-78
2022/08/16 03:46:11;;;;;;;36.25;32.28;;;19.30;99.90;;;;;;5033546;28;20210;-79
2022/08/16 03:48:40;;;;;;;47.35;40.78;;;19.30;99.90;;;;;;5054533;28;20205;-79
2022/08/16 03:51:10;;;;;;;37.55;33.85;;;19.30;99.90;;;;;;5054149;28;20205;-79
2022/08/16 03:53:37;;;;;;;39.00;34.78;;;19.30;99.90;;;;;;5053676;28;20602;-79
2022/08/16 03:56:06;;;;;;;42.47;37.92;;;19.30;99.90;;;;;;5054141;28;20602;-80
2022/08/16 03:58:34;;;;;;;39.85;35.65;;;19.30;99.90;;;;;;5053340;28;20210;-79
2022/08/16 04:01:02;;;;;;;40.08;35.78;;;19.30;99.90;;;;;;5053353;28;20197;-79
2022/08/16 04:03:29;;;;;;;39.20;34.90;;;19.40;99.90;;;;;;5053901;28;20606;-79
2022/08/16 04:05:56;;;;;;;38.85;34.80;;;19.40;99.90;;;;;;5054099;28;20263;-79
2022/08/16 04:08:23;;;;;;;42.50;37.88;;;19.40;99.90;;;;;;5053103;28;20609;-81
2022/08/16 04:10:51;;;;;;;33.45;29.98;;;19.40;99.90;;;;;;5053528;28;20288;-79
2022/08/16 04:13:18;;;;;;;43.83;38.35;;;19.30;99.90;;;;;;5052631;28;20540;-79
2022/08/16 04:15:46;;;;;;;42.90;38.40;;;19.30;99.90;;;;;;5053508;28;20190;-79
2022/08/16 04:18:14;;;;;;;42.15;37.15;;;19.30;99.90;;;;;;5040966;28;20261;-79
2022/08/16 04:20:41;;;;;;;43.55;38.83;;;19.30;99.90;;;;;;5032999;28;20633;-79
2022/08/16 04:23:08;;;;;;;43.00;38.65;;;19.30;99.90;;;;;;5042007;28;20198;-79
2022/08/16 04:25:35;;;;;;;39.25;35.13;;;19.30;99.90;;;;;;5053454;28;20479;-79
2022/08/16 04:28:03;;;;;;;43.83;39.10;;;19.30;99.90;;;;;;5052682;28;20224;-78
2022/08/16 04:30:31;;;;;;;42.85;38.35;;;19.30;99.90;;;;;;5053443;28;20285;-80
2022/08/16 04:32:59;;;;;;;45.55;40.50;;;19.30;99.90;;;;;;5065707;23;20251;-80
2022/08/16 04:35:26;;;;;;;38.60;34.47;;;19.30;99.90;;;;;;5073330;28;20369;-79
2022/08/16 04:37:54;;;;;;;41.25;36.88;;;19.30;99.90;;;;;;5073730;28;20216;-80
2022/08/16 04:40:22;;;;;;;44.45;39.42;;;19.30;99.90;;;;;;5073025;28;20484;-81
2022/08/16 04:42:49;;;;;;;42.47;37.85;;;19.30;99.90;;;;;;5072632;28;20208;-80
2022/08/16 04:45:17;;;;;;;43.30;38.83;;;19.30;99.90;;;;;;5072823;28;20197;-80
2022/08/16 04:47:45;;;;;;;40.72;36.35;;;19.40;99.90;;;;;;5072447;28;20294;-80
2022/08/16 04:50:16;;;;;;;41.47;37.10;;;19.40;99.90;;;;;;5072890;28;20300;-81
2022/08/16 04:52:45;;;;;;;44.63;39.72;;;19.40;99.90;;;;;;5073461;28;20194;-81
2022/08/16 04:55:14;;;;;;;44.03;39.35;;;19.40;99.90;;;;;;5056542;28;20214;-82
2022/08/16 04:57:41;;;;;;;43.15;38.58;;;19.40;99.90;;;;;;5053189;28;20201;-80
2022/08/16 05:00:12;;;;;;;42.88;38.33;;;19.40;99.90;;;;;;5053372;28;20607;-81
2022/08/16 05:02:39;;;;;;;45.72;38.25;;;19.50;99.90;;;;;;5052714;28;20202;-81
2022/08/16 05:05:07;;;;;;;43.45;38.83;;;19.50;99.90;;;;;;5052784;28;20208;-81
2022/08/16 05:07:36;;;;;;;42.92;38.58;;;19.50;99.90;;;;;;5053190;28;20228;-81
2022/08/16 05:10:04;;;;;;;45.70;39.85;;;19.50;99.90;;;;;;5052732;28;20209;-82
2022/08/16 05:12:30;;;;;;;44.47;39.80;;;19.50;99.90;;;;;;5052949;28;20686;-81
2022/08/16 05:14:57;;;;;;;43.25;37.17;;;19.50;99.90;;;;;;5069313;28;20197;-80
2022/08/16 05:17:24;;;;;;;42.83;36.78;;;19.50;99.90;;;;;;5072165;28;20194;-81
2022/08/16 05:19:51;;;;;;;43.85;39.33;;;19.60;99.90;;;;;;5072843;28;20189;-81
2022/08/16 05:22:19;;;;;;;39.05;34.80;;;19.60;99.90;;;;;;5062268;28;20296;-80
2022/08/16 05:24:48;;;;;;;42.92;37.67;;;19.60;99.90;;;;;;5052000;28;20208;-78
2022/08/16 05:27:15;;;;;;;47.38;41.53;;;19.70;99.90;;;;;;5052512;28;20213;-79
2022/08/16 05:29:41;;;;;;;41.00;36.70;;;19.70;99.90;;;;;;5065654;28;20212;-81
2022/08/16 05:32:09;;;;;;;40.25;36.05;;;19.80;99.90;;;;;;5071967;28;20197;-80
2022/08/16 05:34:35;;;;;;;41.08;36.20;;;19.80;99.90;;;;;;5072335;28;20320;-81
2022/08/16 05:37:03;;;;;;;39.83;35.58;;;19.80;99.90;;;;;;5072156;28;20193;-83
2022/08/16 05:39:30;;;;;;;42.42;35.78;;;19.90;99.90;;;;;;5072061;28;20395;-82
2022/08/16 05:41:58;;;;;;;37.83;33.92;;;20.00;99.90;;;;;;5055113;28;20224;-81
2022/08/16 05:44:25;;;;;;;38.25;33.97;;;20.00;99.90;;;;;;5052857;28;20228;-82
2022/08/16 05:46:54;;;;;;;40.75;36.42;;;20.10;99.90;;;;;;5052128;28;20314;-82
2022/08/16 05:49:21;;;;;;;38.85;34.67;;;20.10;99.90;;;;;;5052022;28;20208;-80
2022/08/16 05:51:48;;;;;;;40.85;36.40;;;20.20;99.90;;;;;;5051762;28;20210;-80
2022/08/16 05:54:17;;;;;;;37.88;33.78;;;20.30;99.90;;;;;;5052030;28;20205;-82
2022/08/16 05:56:45;;;;;;;39.47;35.10;;;20.30;99.90;;;;;;5052225;28;20205;-78
2022/08/16 05:59:15;;;;;;;39.55;35.38;;;20.40;99.90;;;;;;5052071;28;20198;-79
2022/08/16 06:01:44;;;;;;;35.58;31.80;;;20.50;99.90;;;;;;5051859;28;20217;-79
2022/08/16 06:04:13;;;;;;;38.55;34.42;;;20.60;99.90;;;;;;5051783;28;20496;-78
2022/08/16 06:06:42;;;;;;;40.15;34.47;;;20.60;99.90;;;;;;5050990;28;20589;-79
2022/08/16 06:09:09;;;;;;;46.90;35.15;;;20.70;99.90;;;;;;5051753;28;20312;-78
2022/08/16 06:11:36;;;;;;;41.20;36.22;;;20.70;99.90;;;;;;5052009;28;20271;-78
2022/08/16 06:14:04;;;;;;;43.63;36.13;;;20.80;99.90;;;;;;5050853;28;20837;-78
2022/08/16 06:16:33;;;;;;;36.70;32.58;;;20.80;99.90;;;;;;5051577;28;20216;-80
2022/08/16 06:19:00;;;;;;;40.28;34.90;;;20.90;99.90;;;;;;5058778;28;20208;-82
2022/08/16 06:21:26;;;;;;;40.70;31.42;;;20.90;99.90;;;;;;5071473;28;20228;-79
2022/08/16 06:23:54;;;;;;;38.67;34.53;;;20.90;99.90;;;;;;5071813;28;20201;-78
2022/08/16 06:26:21;;;;;;;37.45;33.20;;;21.00;99.90;;;;;;5072008;28;20284;-79
2022/08/16 06:28:48;;;;;;;40.22;35.88;;;21.00;99.90;;;;;;5070437;28;20216;-78
2022/08/16 06:31:16;;;;;;;35.25;31.27;;;21.00;99.90;;;;;;5072160;28;20208;-79
2022/08/16 06:33:44;;;;;;;42.58;34.60;;;21.10;99.90;;;;;;5071785;28;20228;-79
2022/08/16 06:36:12;;;;;;;40.55;31.80;;;21.10;99.90;;;;;;5070703;28;20221;-79
2022/08/16 06:38:40;;;;;;;41.90;36.45;;;21.20;99.90;;;;;;5071688;28;20204;-80
2022/08/16 06:41:08;;;;;;;46.15;37.25;;;21.20;99.90;;;;;;5071672;28;20228;-82
2022/08/16 06:43:36;;;;;;;46.38;37.30;;;21.30;99.90;;;;;;5071903;28;20204;-78
2022/08/16 06:46:08;;;;;;;40.00;34.53;;;21.50;99.90;;;;;;5062231;28;20201;-79
2022/08/16 06:48:35;;;;;;;37.33;31.33;;;21.60;99.90;;;;;;5060351;28;20220;-78
2022/08/16 06:51:05;;;;;;;43.83;34.40;;;21.70;99.90;;;;;;5067910;28;20197;-79
2022/08/16 06:53:33;;;;;;;35.97;29.77;;;21.90;99.90;;;;;;5072113;28;20197;-78
2022/08/16 06:56:05;;;;;;;31.48;25.52;;;22.20;99.90;;;;;;5074058;28;20215;-80
2022/08/16 06:58:33;;;;;;;34.33;27.58;;;22.30;99.90;;;;;;5074876;28;20204;-79
2022/08/16 07:01:00;;;;;;;31.10;27.73;;;22.40;99.90;;;;;;5075724;28;20203;-84
2022/08/16 07:03:27;;;;;;;33.97;27.08;;;22.50;99.90;;;;;;5074720;28;20699;-80
2022/08/16 07:05:56;;;;;;;34.80;27.40;;;22.40;99.90;;;;;;5082605;28;20200;-79
2022/08/16 07:08:24;;;;;;;30.13;24.17;;;22.50;99.90;;;;;;5085066;28;20279;-79
2022/08/16 07:10:52;;;;;;;27.30;24.40;;;22.50;99.90;;;;;;5081651;28;20209;-79
2022/08/16 07:13:19;;;;;;;34.33;28.30;;;22.70;99.90;;;;;;5075791;28;20224;-81
2022/08/16 07:15:48;;;;;;;25.83;23.15;;;22.90;99.90;;;;;;5082999;28;20204;-79
2022/08/16 07:18:18;;;;;;;25.45;20.52;;;22.90;99.90;;;;;;5071395;28;20227;-81
2022/08/16 07:20:45;;;;;;;24.38;20.80;;;23.00;99.90;;;;;;5071373;28;20290;-82
2022/08/16 07:23:13;;;;;;;23.08;18.75;;;23.10;99.90;;;;;;5080713;28;20324;-78
2022/08/16 07:25:42;;;;;;;23.08;20.10;;;23.30;99.90;;;;;;5082903;28;20578;-80
2022/08/16 07:28:10;;;;;;;23.13;19.90;;;23.40;68.10;;;;;;5070570;28;20264;-78
2022/08/16 07:30:38;;;;;;;28.50;21.90;;;23.60;5.20;;;;;;5076234;28;20222;-81
2022/08/16 07:33:05;;;;;;;27.65;21.45;;;23.90;1.00;;;;;;5074689;28;20256;-79
2022/08/16 07:35:33;;;;;;;23.25;18.63;;;24.10;1.00;;;;;;5084442;28;20229;-79
2022/08/16 07:38:00;;;;;;;22.23;16.55;;;24.40;1.00;;;;;;5072480;28;20308;-80
2022/08/16 07:40:27;;;;;;;19.95;17.80;;;24.50;99.90;;;;;;5069705;28;20362;-82
2022/08/16 07:42:55;;;;;;;19.33;15.15;;;24.70;1.00;;;;;;5067894;28;20287;-79
2022/08/16 07:45:22;;;;;;;18.88;16.92;;;24.90;1.00;;;;;;5069523;28;20209;-79
2022/08/16 07:47:49;;;;;;;21.58;16.63;;;25.10;99.90;;;;;;5071434;28;20230;-78
2022/08/16 07:50:16;;;;;;;19.42;17.35;;;25.20;99.90;;;;;;5070301;28;20695;-79
2022/08/16 07:52:44;;;;;;;15.35;13.70;;;25.30;1.00;;;;;;5078153;28;20231;-80
2022/08/16 07:55:13;;;;;;;17.60;14.95;;;25.40;1.00;;;;;;5087448;28;20270;-82
2022/08/16 07:57:41;;;;;;;24.65;19.08;;;25.60;1.00;;;;;;5070822;28;20205;-79
2022/08/16 08:00:11;;;;;;;21.05;18.02;;;25.70;1.00;;;;;;5076719;28;20209;-80
2022/08/16 08:02:38;;;;;;;24.33;17.98;;;25.70;99.90;;;;;;5073588;28;20668;-78
2022/08/16 08:05:05;;;;;;;15.68;13.52;;;25.70;99.90;;;;;;5071584;28;20463;-79
2022/08/16 08:07:32;;;;;;;20.27;15.10;;;25.80;99.90;;;;;;5072221;28;20193;-81
2022/08/16 08:09:59;;;;;;;18.25;16.38;;;26.10;99.90;;;;;;5072959;28;20208;-79
2022/08/16 08:12:26;;;;;;;19.02;16.10;;;26.30;1.00;;;;;;5060942;28;20210;-79
2022/08/16 08:14:53;;;;;;;17.73;14.57;;;26.50;1.00;;;;;;5052393;28;20202;-80
2022/08/16 08:17:22;;;;;;;18.17;15.27;;;26.70;99.90;;;;;;5052503;28;20198;-81
2022/08/16 08:19:49;;;;;;;20.05;16.27;;;26.80;99.90;;;;;;5053146;28;20280;-81
2022/08/16 08:22:16;;;;;;;20.58;16.27;;;26.90;38.60;;;;;;5053661;28;20198;-80
2022/08/16 08:24:44;;;;;;;17.80;15.13;;;27.00;57.20;;;;;;5054193;28;20250;-79
2022/08/16 08:27:10;;;;;;;18.23;15.93;;;27.10;99.90;;;;;;5053923;28;20285;-80
2022/08/16 08:29:37;;;;;;;19.40;17.05;;;27.30;1.00;;;;;;5053219;28;20525;-82
2022/08/16 08:32:06;;;;;;;18.80;15.45;;;27.30;1.00;;;;;;5054304;28;20289;-85
2022/08/16 08:34:34;;;;;;;16.75;13.93;;;27.50;1.00;;;;;;5053289;28;20585;-82
2022/08/16 08:37:01;;;;;;;18.92;15.98;;;27.70;1.00;;;;;;5054301;28;20213;-82
2022/08/16 08:39:28;;;;;;;20.23;15.85;;;27.80;1.00;;;;;;5053774;28;20291;-81
2022/08/16 08:41:55;;;;;;;17.13;14.32;;;27.90;1.00;;;;;;5053090;28;20284;-79
2022/08/16 08:44:22;;;;;;;24.33;18.30;;;28.10;1.00;;;;;;5066616;28;20400;-80
2022/08/16 08:46:49;;;;;;;20.45;16.98;;;28.20;1.00;;;;;;5073447;28;20197;-81
2022/08/16 08:49:16;;;;;;;17.20;15.43;;;28.20;1.00;;;;;;5072846;28;20312;-83
2022/08/16 08:51:44;;;;;;;19.17;16.85;;;28.20;1.00;;;;;;5072222;28;20202;-82
2022/08/16 08:54:13;;;;;;;23.40;17.38;;;28.20;1.00;;;;;;5060932;28;20209;-80
2022/08/16 08:56:40;;;;;;;14.57;13.07;;;28.30;1.00;;;;;;5072067;28;20201;-81
2022/08/16 08:59:08;;;;;;;15.90;14.23;;;28.30;1.00;;;;;;5071863;28;20666;-82
2022/08/16 09:01:37;;;;;;;12.93;10.52;;;28.50;1.00;;;;;;5068527;28;20652;-84
2022/08/16 09:04:06;;;;;;;18.48;14.82;;;28.50;1.00;;;;;;5079342;28;20207;-79
2022/08/16 09:06:33;;;;;;;14.95;13.50;;;28.60;1.00;;;;;;5077692;28;20592;-80
2022/08/16 09:09:02;;;;;;;13.60;11.23;;;28.80;1.00;;;;;;5072160;28;20217;-82
2022/08/16 09:11:29;;;;;;;15.20;10.88;;;28.90;1.00;;;;;;5072849;28;20193;-82
2022/08/16 09:13:56;;;;;;;12.55;11.25;;;29.10;1.00;;;;;;5068148;28;20617;-81
2022/08/16 09:16:23;;;;;;;16.02;13.00;;;29.20;99.90;;;;;;5052260;28;20585;-80
2022/08/16 09:18:50;;;;;;;17.02;14.95;;;29.20;99.90;;;;;;5053148;28;20285;-84
2022/08/16 09:21:17;;;;;;;15.35;13.15;;;29.10;99.90;;;;;;5053596;28;20594;-84
2022/08/16 09:23:45;;;;;;;13.68;11.95;;;28.90;99.90;;;;;;5058311;28;20205;-88
2022/08/16 09:26:16;;;;;;;17.70;14.45;;;28.80;99.90;;;;;;5073741;28;20209;-85
2022/08/16 09:28:44;;;;;;;14.75;12.48;;;28.60;99.90;;;;;;5083442;28;20316;-87
2022/08/16 09:31:12;;;;;;;14.50;10.60;;;28.60;99.90;;;;;;5073698;28;20220;-83
2022/08/16 09:33:40;;;;;;;13.80;11.70;;;28.70;99.90;;;;;;5074104;28;20308;-87
2022/08/16 09:36:08;;;;;;;12.63;10.15;;;28.80;99.90;;;;;;5073750;28;20251;-86
2022/08/16 09:38:37;;;;;;;10.15;9.15;;;29.00;99.90;;;;;;5074118;28;20284;-87
2022/08/16 09:41:05;;;;;;;16.95;10.80;;;29.10;99.90;;;;;;5059779;28;20206;-84
2022/08/16 09:43:35;;;;;;;13.57;12.15;;;29.10;99.90;;;;;;5054631;28;20198;-88
2022/08/16 09:46:06;;;;;;;16.77;13.75;;;29.00;99.90;;;;;;5053776;28;20201;-87
2022/08/16 09:48:33;;;;;;;12.60;10.57;;;29.00;99.90;;;;;;5054740;28;20491;-85
2022/08/16 09:51:00;;;;;;;11.50;8.63;;;29.00;99.90;;;;;;5068017;28;20220;-82
2022/08/16 09:53:28;;;;;;;13.38;9.55;;;29.00;99.90;;;;;;5074324;28;20280;-88
2022/08/16 09:55:58;;;;;;;14.18;10.95;;;28.90;99.90;;;;;;5059528;28;20251;-87
2022/08/16 09:58:26;;;;;;;19.38;12.65;;;28.90;99.90;;;;;;5053108;28;20199;-89
2022/08/16 10:00:55;;;;;;;12.38;9.18;;;28.90;99.90;;;;;;5061397;28;20232;-88
2022/08/16 10:03:22;;;;;;;11.48;9.40;;;28.80;99.90;;;;;;5063200;28;20273;-89
2022/08/16 10:05:50;;;;;;;12.13;9.10;;;28.80;99.90;;;;;;5061311;28;20284;-91
2022/08/16 10:08:17;;;;;;;12.75;10.73;;;29.00;99.90;;;;;;5072115;28;20219;-88
2022/08/16 10:13:10;;;;;;;11.13;9.80;;;29.10;99.90;;;;;;5083204;28;20193;-92
2022/08/16 10:13:33;;;;;;;12.90;11.63;;;29.20;99.90;;;;;;5082378;28;20261;-92
2022/08/16 10:16:02;;;;;;;14.30;9.70;;;29.20;99.90;;;;;;5078356;28;20197;-90
2022/08/16 10:18:31;;;;;;;13.50;10.18;;;29.30;99.90;;;;;;5077474;28;20197;-91
2022/08/16 10:20:58;;;;;;;11.57;10.48;;;29.30;99.90;;;;;;5076922;28;20205;-91
2022/08/16 10:23:26;;;;;;;16.50;10.77;;;29.30;99.90;;;;;;5076575;28;20275;-88
2022/08/16 10:25:58;;;;;;;17.33;10.43;;;29.20;99.90;;;;;;5081880;22;20241;-91
2022/08/16 10:28:27;;;;;;;13.95;10.95;;;29.20;99.90;;;;;;5075080;28;20197;-89
2022/08/16 10:30:54;;;;;;;13.52;10.27;;;29.10;99.90;;;;;;5078650;28;20624;-92
2022/08/16 10:33:22;;;;;;;14.25;10.30;;;29.00;99.90;;;;;;5066283;28;20198;-94
2022/08/16 10:35:49;;;;;;;17.65;11.23;;;28.90;99.90;;;;;;5059202;28;20232;-92
2022/08/16 10:38:16;;;;;;;13.63;8.80;;;28.80;99.90;;;;;;5062734;28;20211;-92
2022/08/16 10:40:43;;;;;;;9.80;8.10;;;28.80;99.90;;;;;;5078353;28;20196;-91
2022/08/16 10:43:10;;;;;;;14.10;9.52;;;28.80;99.90;;;;;;5078651;28;20270;-86
2022/08/16 10:45:37;;;;;;;12.95;8.55;;;28.80;99.90;;;;;;5078022;28;20201;-87
2022/08/16 10:48:06;;;;;;;12.60;9.27;;;28.80;99.90;;;;;;5076913;28;20216;-94
2022/08/16 10:50:35;;;;;;;16.30;10.38;;;28.80;99.90;;;;;;5077585;28;20529;-89
2022/08/16 10:53:05;;;;;;;12.43;11.02;;;28.80;99.90;;;;;;5078439;28;20205;-94
2022/08/16 10:55:33;;;;;;;10.40;9.38;;;28.70;99.90;;;;;;5078013;28;20196;-90
2022/08/16 10:58:01;;;;;;;18.00;12.13;;;28.70;99.90;;;;;;5061794;28;20217;-92
2022/08/16 11:00:28;;;;;;;17.95;15.90;;;28.70;99.90;;;;;;5057718;28;20201;-89
2022/08/16 11:02:55;;;;;;;19.85;14.77;;;28.70;99.90;;;;;;5057594;28;20230;-89
2022/08/16 11:05:22;;;;;;;13.25;10.60;;;28.60;99.90;;;;;;5058463;28;20687;-91
2022/08/16 11:07:50;;;;;;;15.15;10.93;;;28.70;99.90;;;;;;5056308;28;20194;-87
2022/08/16 11:10:19;;;;;;;15.15;12.88;;;28.80;99.90;;;;;;5054584;28;20255;-83
2022/08/16 11:12:46;;;;;;;18.40;12.82;;;28.90;99.90;;;;;;5058962;28;20319;-83
2022/08/16 11:15:13;;;;;;;12.32;9.57;;;29.00;99.90;;;;;;5087637;28;20235;-81
2022/08/16 11:17:40;;;;;;;13.20;11.80;;;28.80;99.90;;;;;;5053511;28;20834;-82
2022/08/16 11:20:12;;;;;;;15.10;11.25;;;28.90;99.90;;;;;;5054249;28;20230;-83
2022/08/16 11:22:41;;;;;;;15.93;12.57;;;29.00;99.90;;;;;;5054016;28;20298;-81
2022/08/16 11:25:11;;;;;;;15.98;13.15;;;29.00;99.90;;;;;;5052861;28;20260;-79
2022/08/16 11:27:38;;;;;;;17.35;15.45;;;29.00;99.90;;;;;;5054430;28;20202;-84
2022/08/16 11:30:08;;;;;;;14.50;9.85;;;28.80;99.90;;;;;;5053984;28;20263;-82
2022/08/16 11:32:35;;;;;;;13.23;11.00;;;28.80;99.90;;;;;;5054073;28;20214;-83
2022/08/16 11:35:04;;;;;;;14.00;10.75;;;28.90;99.90;;;;;;5053222;28;20233;-80
2022/08/16 11:37:33;;;;;;;19.55;15.50;;;28.80;99.90;;;;;;5053365;28;20602;-83
2022/08/16 11:40:00;;;;;;;15.45;13.55;;;28.90;99.90;;;;;;5054436;28;20599;-87
2022/08/16 11:42:28;;;;;;;14.93;10.68;;;28.90;99.90;;;;;;5054687;28;20213;-81
2022/08/16 11:44:55;;;;;;;17.02;12.40;;;28.90;99.90;;;;;;5053258;28;20225;-82
2022/08/16 11:47:22;;;;;;;11.82;10.05;;;29.00;99.90;;;;;;5053488;28;20751;-80
2022/08/16 11:49:50;;;;;;;12.57;10.55;;;28.90;99.90;;;;;;5053895;28;20260;-88
2022/08/16 11:52:17;;;;;;;12.35;10.80;;;29.00;99.90;;;;;;5066368;23;20225;-82
2022/08/16 11:54:46;;;;;;;14.05;11.07;;;29.10;99.90;;;;;;5057201;28;20216;-81
2022/08/16 11:57:13;;;;;;;12.88;10.43;;;29.00;99.90;;;;;;5054054;28;20335;-82
2022/08/16 11:59:42;;;;;;;13.40;10.40;;;29.00;99.90;;;;;;5054000;28;20209;-84
2022/08/16 12:02:10;;;;;;;14.05;12.00;;;29.10;99.90;;;;;;5054118;28;20295;-82
2022/08/16 12:04:37;;;;;;;11.85;9.18;;;29.10;99.90;;;;;;5053032;28;20248;-82
2022/08/16 12:07:06;;;;;;;9.13;8.18;;;29.20;99.90;;;;;;5054564;28;20209;-81
2022/08/16 12:09:34;;;;;;;13.43;10.55;;;29.20;99.90;;;;;;5053492;28;20652;-82
2022/08/16 12:12:01;;;;;;;12.57;9.57;;;29.30;99.90;;;;;;5053472;28;20301;-82
2022/08/16 12:14:28;;;;;;;19.52;14.70;;;29.20;99.90;;;;;;5065036;28;20656;-83
2022/08/16 12:16:58;;;;;;;15.60;11.95;;;29.20;99.90;;;;;;5073437;28;20295;-82
2022/08/16 12:19:25;;;;;;;15.63;13.02;;;29.20;99.90;;;;;;5073099;28;20558;-86
2022/08/16 12:21:52;;;;;;;9.43;8.52;;;29.10;99.90;;;;;;5073493;28;20775;-86
2022/08/16 12:24:19;;;;;;;11.63;9.65;;;29.00;99.90;;;;;;5073193;28;20232;-83
2022/08/16 12:26:47;;;;;;;14.45;11.20;;;29.10;99.90;;;;;;5073132;28;20659;-83
2022/08/16 12:29:14;;;;;;;10.82;9.45;;;29.00;99.90;;;;;;5072924;28;20221;-84
2022/08/16 12:31:41;;;;;;;14.63;12.15;;;28.90;99.90;;;;;;5074900;28;20205;-90